Ramrod Key, Florida
Current Conditions -  °F | °C
As of 2:13 PM on Friday 24 Oct 2014 (Local Time) from KNQX Reporting Station
Broken Clouds Broken Clouds  
Wind Chill: 79°   Ceiling: 4000
Heat Index: 82°   Visibility: 10mi
Dew Point: 72°   Wind: 15mph
Humidity: 79%   Direction: 20°NNE
Pressure: 29.82"   Gusts: 23mph
Location:  24.6465°N, 81.5399°W
Report Text: KNQX 241813Z 02013G20KT 10SM SCT022 BKN040 BKN070 26/22 A2982 RMK AO2 T02610222 $
Loading
Personal Weather Stations






























Interactive Weather Map
Tropical Storm Tracking
New forecast layout! Learn more

10-Day Weather Forecast

Advertisements
Track Severe Weather on mobile